createdAt,value
2022-09-23T00:01:12.542Z,53.34
2022-09-23T00:03:39.005Z,53.05
2022-09-23T00:06:05.342Z,52.79
2022-09-23T00:08:31.675Z,52.97
2022-09-23T00:10:57.986Z,52.75
2022-09-23T00:13:24.272Z,52.62
2022-09-23T00:15:50.596Z,52.71
2022-09-23T00:18:17.809Z,52.22
2022-09-23T00:20:44.148Z,52.13
2022-09-23T00:23:10.470Z,52.23
2022-09-23T00:25:36.823Z,52.61
2022-09-23T00:28:03.106Z,52.68
2022-09-23T00:30:29.542Z,53.14
2022-09-23T00:32:55.901Z,52.69
2022-09-23T00:35:22.219Z,53.07
2022-09-23T00:37:48.520Z,52.88
2022-09-23T00:40:14.900Z,53.10
2022-09-23T00:42:41.294Z,53.83
2022-09-23T00:45:07.605Z,53.52
2022-09-23T00:47:33.927Z,53.38
2022-09-23T00:50:00.250Z,53.34
2022-09-23T00:52:26.536Z,53.54
2022-09-23T00:54:52.847Z,53.37
2022-09-23T00:57:19.163Z,53.78
2022-09-23T00:59:45.504Z,53.49
2022-09-23T01:02:11.881Z,53.43
2022-09-23T01:04:38.282Z,53.71
2022-09-23T01:07:04.605Z,53.49
2022-09-23T01:09:30.954Z,53.60
2022-09-23T01:11:57.270Z,53.69
2022-09-23T01:14:23.592Z,53.72
2022-09-23T01:16:49.975Z,53.72
2022-09-23T01:19:16.350Z,53.81
2022-09-23T01:21:42.661Z,53.82
2022-09-23T01:24:08.985Z,53.90
2022-09-23T01:26:35.426Z,53.73
2022-09-23T01:29:01.748Z,53.88
2022-09-23T01:31:28.063Z,53.90
2022-09-23T01:33:54.383Z,54.09
2022-09-23T01:36:20.718Z,54.14
2022-09-23T01:38:47.074Z,54.05
2022-09-23T01:41:13.395Z,54.08
2022-09-23T01:43:39.795Z,54.00
2022-09-23T01:46:06.122Z,54.22
2022-09-23T01:48:32.464Z,53.99
2022-09-23T01:50:58.821Z,54.14
2022-09-23T01:53:25.141Z,54.24
2022-09-23T01:55:51.486Z,53.91
2022-09-23T01:58:17.807Z,54.01
2022-09-23T02:00:44.105Z,53.87
2022-09-23T02:03:10.428Z,53.98
2022-09-23T02:05:36.742Z,53.93
2022-09-23T02:08:03.075Z,54.01
2022-09-23T02:10:29.397Z,53.72
2022-09-23T02:12:55.736Z,53.93
2022-09-23T02:15:22.082Z,53.76
2022-09-23T02:17:48.434Z,53.46
2022-09-23T02:20:14.767Z,53.68
2022-09-23T02:22:41.136Z,53.28
2022-09-23T02:25:07.482Z,53.35
2022-09-23T02:27:33.872Z,53.25
2022-09-23T02:30:00.202Z,53.29
2022-09-23T02:32:26.520Z,53.48
2022-09-23T02:34:52.845Z,53.15
2022-09-23T02:37:19.177Z,53.25
2022-09-23T02:39:45.491Z,53.11
2022-09-23T02:42:12.694Z,52.79
2022-09-23T02:44:39.012Z,53.46
2022-09-23T02:47:05.354Z,53.77
2022-09-23T02:49:31.697Z,53.58
2022-09-23T02:51:58.020Z,53.54
2022-09-23T02:54:24.327Z,53.77
2022-09-23T02:56:50.670Z,53.94
2022-09-23T02:59:17.020Z,53.97
2022-09-23T03:01:43.714Z,54.14
2022-09-23T03:04:10.058Z,53.88
2022-09-23T03:06:36.380Z,54.10
2022-09-23T03:09:02.785Z,54.47
2022-09-23T03:11:29.237Z,54.13
2022-09-23T03:13:55.564Z,54.34
2022-09-23T03:16:21.926Z,54.39
2022-09-23T03:18:48.285Z,54.44
2022-09-23T03:21:14.739Z,54.64
2022-09-23T03:23:41.062Z,54.97
2022-09-23T03:26:07.394Z,55.04
2022-09-23T03:28:33.746Z,54.98
2022-09-23T03:31:00.074Z,54.50
2022-09-23T03:33:28.665Z,54.91
2022-09-23T03:35:55.352Z,55.04
2022-09-23T03:38:21.670Z,55.00
2022-09-23T03:40:48.019Z,54.72
2022-09-23T03:43:14.390Z,54.85
2022-09-23T03:45:40.757Z,54.85
2022-09-23T03:48:07.089Z,54.99
2022-09-23T03:50:33.447Z,55.05
2022-09-23T03:52:59.758Z,54.75
2022-09-23T03:55:26.052Z,54.77
2022-09-23T03:57:52.418Z,54.78
2022-09-23T04:00:18.758Z,54.41
2022-09-23T04:02:45.080Z,54.33
2022-09-23T04:05:11.463Z,54.48
2022-09-23T04:07:37.796Z,54.33
2022-09-23T04:10:04.124Z,54.21
2022-09-23T04:12:30.466Z,54.12
2022-09-23T04:14:56.808Z,54.32
2022-09-23T04:17:23.160Z,54.23
2022-09-23T04:19:49.531Z,54.10
2022-09-23T04:22:15.840Z,53.98
2022-09-23T04:24:42.144Z,53.84
2022-09-23T04:27:08.496Z,53.91
2022-09-23T04:29:34.815Z,53.88
2022-09-23T04:32:01.244Z,53.21
2022-09-23T04:34:27.594Z,53.56
2022-09-23T04:36:53.911Z,53.58
2022-09-23T04:39:20.246Z,53.78
2022-09-23T04:41:46.545Z,53.14
2022-09-23T04:44:12.878Z,52.93
2022-09-23T04:46:39.338Z,53.02
2022-09-23T04:49:05.782Z,52.69
2022-09-23T04:51:32.120Z,52.99
2022-09-23T04:53:58.453Z,52.80
2022-09-23T04:56:24.781Z,52.51
2022-09-23T04:58:51.139Z,52.67
2022-09-23T05:01:17.497Z,52.93
2022-09-23T05:03:43.870Z,53.10
2022-09-23T05:06:10.215Z,52.10
2022-09-23T05:08:36.554Z,52.30
2022-09-23T05:11:02.982Z,51.61
2022-09-23T05:13:30.195Z,52.08
2022-09-23T05:15:57.444Z,51.55
2022-09-23T05:18:23.831Z,52.03
2022-09-23T05:20:50.171Z,52.36
2022-09-23T05:23:17.346Z,53.00
2022-09-23T05:25:43.690Z,53.25
2022-09-23T05:28:10.045Z,53.16
2022-09-23T05:30:36.443Z,53.29
2022-09-23T05:33:02.781Z,53.38
2022-09-23T05:35:29.080Z,53.30
2022-09-23T05:37:55.409Z,53.82
2022-09-23T05:40:21.773Z,53.96
2022-09-23T05:42:48.122Z,53.61
2022-09-23T05:45:15.541Z,54.47
2022-09-23T05:47:42.468Z,53.96
2022-09-23T05:50:08.841Z,53.97
2022-09-23T05:52:35.177Z,54.34
2022-09-23T05:55:01.870Z,53.91
2022-09-23T05:57:28.196Z,54.06
2022-09-23T05:59:57.638Z,54.46
2022-09-23T06:02:24.259Z,54.32
2022-09-23T06:04:50.764Z,54.42
2022-09-23T06:07:17.459Z,53.94
2022-09-23T06:09:43.812Z,54.17
2022-09-23T06:15:03.920Z,54.59
2022-09-23T06:17:30.299Z,54.05
2022-09-23T06:19:56.631Z,54.50
2022-09-23T06:22:22.946Z,54.67
2022-09-23T06:24:49.277Z,54.46
2022-09-23T06:29:59.398Z,53.09
2022-09-23T06:32:25.715Z,53.08
2022-09-23T06:34:52.244Z,51.76
2022-09-23T06:37:20.624Z,51.47
2022-09-23T06:39:47.374Z,51.07
2022-09-23T06:45:10.400Z,50.69
2022-09-23T06:47:36.854Z,50.38
2022-09-23T06:50:03.307Z,49.90
2022-09-23T06:52:29.730Z,49.70
2022-09-23T06:54:58.018Z,49.95
2022-09-23T07:00:08.494Z,51.14
2022-09-23T07:02:34.946Z,51.58
2022-09-23T07:05:01.384Z,52.10
2022-09-23T07:07:28.603Z,52.40
2022-09-23T07:09:54.940Z,52.93
2022-09-23T07:15:05.250Z,52.65
2022-09-23T07:17:31.597Z,52.08
2022-09-23T07:19:58.795Z,51.96
2022-09-23T07:22:25.116Z,51.46
2022-09-23T07:24:51.420Z,51.67
2022-09-23T07:30:22.099Z,51.79
2022-09-23T07:32:50.674Z,52.12
2022-09-23T07:35:17.930Z,51.37
2022-09-23T07:37:44.272Z,51.53
2022-09-23T07:40:10.682Z,51.69
2022-09-23T07:45:20.884Z,51.55
2022-09-23T07:47:47.210Z,51.27
2022-09-23T07:50:13.527Z,51.19
2022-09-23T07:52:39.843Z,50.98
2022-09-23T07:55:06.196Z,50.91
2022-09-23T08:00:16.208Z,50.83
2022-09-23T08:02:42.615Z,50.96
2022-09-23T08:05:09.838Z,50.97
2022-09-23T08:07:36.198Z,50.67
2022-09-23T08:10:02.552Z,50.50
2022-09-23T08:15:23.104Z,50.98
2022-09-23T08:17:49.437Z,50.00
2022-09-23T08:20:15.767Z,50.62
2022-09-23T08:22:42.110Z,50.14
2022-09-23T08:25:10.258Z,50.73
2022-09-23T08:30:21.584Z,50.46
2022-09-23T08:32:48.042Z,49.95
2022-09-23T08:35:14.376Z,49.91
2022-09-23T08:37:40.731Z,49.47
2022-09-23T08:40:07.223Z,49.16
2022-09-23T08:45:17.444Z,48.92
2022-09-23T08:47:43.774Z,48.61
2022-09-23T08:50:10.128Z,48.48
2022-09-23T08:52:36.468Z,48.68
2022-09-23T08:55:02.810Z,48.51
2022-09-23T09:00:23.370Z,48.45
2022-09-23T09:02:49.795Z,48.00
2022-09-23T09:05:16.159Z,48.13
2022-09-23T09:07:42.463Z,47.74
2022-09-23T09:10:09.674Z,47.95
2022-09-23T09:15:20.009Z,47.46
2022-09-23T09:17:46.350Z,47.16
2022-09-23T09:20:13.555Z,46.99
2022-09-23T09:22:39.894Z,46.92
2022-09-23T09:25:06.268Z,46.89
2022-09-23T09:30:16.661Z,46.53
2022-09-23T09:32:42.975Z,46.62
2022-09-23T09:35:10.166Z,46.56
2022-09-23T09:37:36.517Z,46.48
2022-09-23T09:40:02.827Z,46.48
2022-09-23T09:45:23.235Z,46.80
2022-09-23T09:47:49.537Z,46.39
2022-09-23T09:50:15.854Z,46.53
2022-09-23T09:52:44.916Z,46.28
2022-09-23T09:55:11.301Z,46.30
2022-09-23T10:00:31.676Z,45.59
2022-09-23T10:02:58.026Z,45.71
2022-09-23T10:05:24.321Z,45.43
2022-09-23T10:07:50.627Z,45.32
2022-09-23T10:10:31.776Z,45.28
2022-09-23T10:15:53.202Z,45.23
2022-09-23T10:18:19.557Z,45.08
2022-09-23T10:20:45.860Z,44.98
2022-09-23T10:23:12.161Z,45.15
2022-09-23T10:25:38.457Z,44.70
2022-09-23T10:30:58.889Z,45.00
2022-09-23T10:33:25.226Z,45.19
2022-09-23T10:35:51.541Z,45.19
2022-09-23T10:38:17.874Z,45.11
2022-09-23T10:40:44.325Z,45.19
2022-09-23T10:46:04.850Z,44.93
2022-09-23T10:48:31.227Z,45.19
2022-09-23T10:50:59.386Z,45.27
2022-09-23T10:53:25.899Z,45.13
2022-09-23T10:55:52.218Z,45.27
2022-09-23T11:01:03.410Z,45.36
2022-09-23T11:03:29.769Z,45.15
2022-09-23T11:05:56.152Z,44.94
2022-09-23T11:08:22.481Z,45.08
2022-09-23T11:10:48.778Z,45.17
2022-09-23T11:16:08.980Z,45.18
2022-09-23T11:18:35.436Z,44.94
2022-09-23T11:21:01.768Z,44.92
2022-09-23T11:23:28.101Z,44.78
2022-09-23T11:25:54.455Z,44.58
2022-09-23T11:31:04.522Z,44.52
2022-09-23T11:33:30.864Z,44.72
2022-09-23T11:35:57.198Z,44.53
2022-09-23T11:38:23.481Z,45.00
2022-09-23T11:40:49.852Z,44.56
2022-09-23T11:43:16.241Z,44.78
2022-09-23T11:45:42.914Z,44.77
2022-09-23T11:48:09.308Z,44.69
2022-09-23T11:50:35.638Z,44.81
2022-09-23T11:53:01.950Z,44.66
2022-09-23T11:55:28.272Z,44.84
2022-09-23T11:57:54.581Z,44.68
2022-09-23T12:00:20.877Z,44.46
2022-09-23T12:02:58.612Z,45.00
2022-09-23T12:05:27.643Z,44.68
2022-09-23T12:07:54.091Z,43.96
2022-09-23T12:10:20.469Z,43.02
2022-09-23T12:12:46.863Z,42.86
2022-09-23T12:15:13.177Z,42.83
2022-09-23T12:17:39.529Z,42.30
2022-09-23T12:20:05.962Z,42.82
2022-09-23T12:22:32.271Z,42.99
2022-09-23T12:24:58.575Z,42.24
2022-09-23T12:27:24.853Z,41.75
2022-09-23T12:29:51.268Z,41.67
2022-09-23T12:32:17.603Z,41.70
2022-09-23T12:34:43.908Z,41.71
2022-09-23T12:37:10.235Z,41.67
2022-09-23T12:39:36.564Z,41.20
2022-09-23T12:42:02.873Z,41.31
2022-09-23T12:44:29.203Z,41.22
2022-09-23T12:46:55.529Z,41.11
2022-09-23T12:49:21.845Z,40.84
2022-09-23T12:51:48.185Z,40.95
2022-09-23T12:54:14.513Z,40.62
2022-09-23T12:56:41.154Z,40.91
2022-09-23T12:59:07.467Z,40.85
2022-09-23T13:04:17.783Z,40.39
2022-09-23T13:06:44.119Z,40.92
2022-09-23T13:09:10.437Z,40.25
2022-09-23T13:11:36.713Z,40.85
2022-09-23T13:14:03.178Z,40.14
2022-09-23T13:19:16.151Z,39.99
2022-09-23T13:21:42.437Z,40.67
2022-09-23T13:24:08.762Z,39.51
2022-09-23T13:26:35.113Z,39.82
2022-09-23T13:29:01.405Z,40.01
2022-09-23T13:34:11.578Z,39.71
2022-09-23T13:36:37.877Z,39.79
2022-09-23T13:39:04.265Z,39.21
2022-09-23T13:41:30.546Z,39.54
2022-09-23T13:43:56.883Z,40.03
2022-09-23T13:49:17.297Z,40.22
2022-09-23T13:51:46.407Z,40.46
2022-09-23T13:54:12.725Z,40.55
2022-09-23T13:56:39.037Z,40.72
2022-09-23T13:59:05.348Z,40.30
2022-09-23T14:04:16.589Z,40.69
2022-09-23T14:06:42.923Z,40.17
2022-09-23T14:09:09.253Z,40.18
2022-09-23T14:11:36.447Z,40.47
2022-09-23T14:14:02.825Z,40.12
2022-09-23T14:19:15.941Z,39.85
2022-09-23T14:21:42.279Z,40.10
2022-09-23T14:24:08.620Z,39.91
2022-09-23T14:26:34.911Z,39.70
2022-09-23T14:29:01.249Z,40.17
2022-09-23T14:34:11.721Z,39.76
2022-09-23T14:36:38.032Z,39.86
2022-09-23T14:39:04.368Z,40.30
2022-09-23T14:41:30.678Z,40.07
2022-09-23T14:43:59.786Z,39.96
2022-09-23T14:49:10.150Z,40.37
2022-09-23T14:51:39.305Z,40.23
2022-09-23T14:54:05.624Z,39.65
2022-09-23T14:56:31.962Z,39.96
2022-09-23T14:59:01.086Z,39.82
2022-09-23T15:04:11.313Z,40.19
2022-09-23T15:06:37.624Z,39.98
2022-09-23T15:09:06.763Z,40.44
2022-09-23T15:11:33.088Z,40.71
2022-09-23T15:14:09.450Z,40.60
2022-09-23T15:19:29.807Z,41.00
2022-09-23T15:21:56.121Z,40.04
2022-09-23T15:24:25.235Z,40.40
2022-09-23T15:26:51.517Z,40.74
2022-09-23T15:29:17.917Z,40.77
2022-09-23T15:34:30.904Z,40.57
2022-09-23T15:36:57.239Z,40.70
2022-09-23T15:39:32.030Z,40.55
2022-09-23T15:42:02.230Z,41.33
2022-09-23T15:44:28.571Z,41.02
2022-09-23T15:49:48.533Z,41.20
2022-09-23T15:52:15.741Z,41.35
2022-09-23T15:54:42.067Z,41.21
2022-09-23T15:57:08.430Z,41.74
2022-09-23T15:59:34.773Z,41.68
2022-09-23T16:04:54.843Z,41.84
2022-09-23T16:07:21.340Z,42.23
2022-09-23T16:09:47.687Z,42.22
2022-09-23T16:12:14.899Z,42.27
2022-09-23T16:14:41.314Z,41.97
2022-09-23T16:19:51.720Z,42.25
2022-09-23T16:22:18.066Z,42.20
2022-09-23T16:24:44.417Z,42.61
2022-09-23T16:27:10.752Z,42.56
2022-09-23T16:29:37.091Z,42.48
2022-09-23T16:34:47.579Z,42.76
2022-09-23T16:37:14.785Z,42.87
2022-09-23T16:39:41.141Z,43.09
2022-09-23T16:42:07.489Z,43.23
2022-09-23T16:44:33.875Z,43.62
2022-09-23T16:49:44.027Z,43.49
2022-09-23T16:52:10.390Z,43.67
2022-09-23T16:54:36.714Z,43.99
2022-09-23T16:57:03.076Z,44.24
2022-09-23T16:59:29.416Z,44.21
2022-09-23T17:04:49.520Z,44.45
2022-09-23T17:07:15.891Z,44.68
2022-09-23T17:09:42.234Z,44.69
2022-09-23T17:12:08.612Z,44.58
2022-09-23T17:14:34.947Z,44.63
2022-09-23T17:19:45.004Z,44.81
2022-09-23T17:22:11.334Z,45.15
2022-09-23T17:24:40.448Z,44.88
2022-09-23T17:27:06.794Z,45.25
2022-09-23T17:29:33.198Z,45.06
2022-09-23T17:34:43.450Z,45.38
2022-09-23T17:37:09.882Z,45.45
2022-09-23T17:39:39.024Z,45.40
2022-09-23T17:42:05.384Z,45.56
2022-09-23T17:44:31.716Z,45.54
2022-09-23T17:46:58.069Z,45.69
2022-09-23T17:49:24.413Z,45.70
2022-09-23T17:51:50.758Z,46.05
2022-09-23T17:54:17.970Z,45.77
2022-09-23T17:56:44.321Z,46.03
2022-09-23T17:59:10.698Z,46.13
2022-09-23T18:01:37.374Z,45.74
2022-09-23T18:04:04.322Z,46.10
2022-09-23T18:06:30.832Z,46.20
2022-09-23T18:08:57.269Z,46.32
2022-09-23T18:11:23.696Z,46.21
2022-09-23T18:13:50.285Z,46.53
2022-09-23T18:16:16.725Z,46.39
2022-09-23T18:18:43.256Z,46.64
2022-09-23T18:21:09.847Z,46.57
2022-09-23T18:23:36.293Z,46.93
2022-09-23T18:26:02.873Z,46.63
2022-09-23T18:28:32.657Z,46.73
2022-09-23T18:31:04.003Z,47.01
2022-09-23T18:33:30.484Z,47.22
2022-09-23T18:35:57.066Z,47.09
2022-09-23T18:38:23.560Z,47.29
2022-09-23T18:40:50.002Z,47.63
2022-09-23T18:43:19.644Z,47.09
2022-09-23T18:45:46.349Z,47.24
2022-09-23T18:48:13.782Z,47.21
2022-09-23T18:50:40.233Z,47.79
2022-09-23T18:53:06.758Z,47.33
2022-09-23T18:55:33.239Z,47.39
2022-09-23T18:57:59.763Z,47.82
2022-09-23T19:00:26.267Z,47.76
2022-09-23T19:02:52.978Z,47.65
2022-09-23T19:08:03.387Z,47.69
2022-09-23T19:10:29.817Z,47.58
2022-09-23T19:12:56.423Z,48.08
2022-09-23T19:15:22.911Z,47.54
2022-09-23T19:17:49.308Z,47.81
2022-09-23T19:23:10.469Z,48.04
2022-09-23T19:25:36.891Z,48.19
2022-09-23T19:28:03.331Z,48.08
2022-09-23T19:30:29.832Z,47.79
2022-09-23T19:32:56.246Z,47.94
2022-09-23T19:38:16.795Z,48.07
2022-09-23T19:40:47.685Z,48.11
2022-09-23T19:43:15.695Z,48.02
2022-09-23T19:45:42.287Z,48.25
2022-09-23T19:48:08.888Z,48.22
2022-09-23T19:53:19.188Z,48.46
2022-09-23T19:55:45.662Z,48.43
2022-09-23T20:00:39.583Z,48.41
2022-09-23T20:03:06.572Z,48.25
2022-09-23T20:08:16.814Z,48.20
2022-09-23T20:10:43.206Z,48.47
2022-09-23T20:13:09.593Z,48.30
2022-09-23T20:15:35.947Z,48.54
2022-09-23T20:18:02.317Z,48.43
2022-09-23T20:23:22.609Z,48.93
2022-09-23T20:25:49.120Z,49.27
2022-09-23T20:28:15.448Z,49.04
2022-09-23T20:30:41.806Z,49.11
2022-09-23T20:33:08.162Z,49.49
2022-09-23T20:38:18.390Z,49.21
2022-09-23T20:40:44.801Z,49.24
2022-09-23T20:43:11.184Z,49.10
2022-09-23T20:45:37.519Z,49.33
2022-09-23T20:48:03.892Z,49.54
2022-09-23T20:53:14.090Z,49.44
2022-09-23T20:55:40.423Z,49.27
2022-09-23T20:58:06.990Z,48.86
2022-09-23T21:00:33.368Z,48.94
2022-09-23T21:02:59.704Z,48.71
2022-09-23T21:08:19.733Z,48.84
2022-09-23T21:10:46.066Z,48.61
2022-09-23T21:13:13.279Z,49.00
2022-09-23T21:15:39.632Z,48.97
2022-09-23T21:18:06.002Z,48.78
2022-09-23T21:23:26.195Z,49.23
2022-09-23T21:25:52.577Z,48.77
2022-09-23T21:28:18.926Z,49.22
2022-09-23T21:30:48.575Z,49.10
2022-09-23T21:33:18.147Z,49.04
2022-09-23T21:38:29.295Z,49.14
2022-09-23T21:40:55.662Z,49.18
2022-09-23T21:43:22.137Z,49.27
2022-09-23T21:45:48.575Z,49.08
2022-09-23T21:48:15.117Z,49.12
2022-09-23T21:53:25.525Z,49.13
2022-09-23T21:55:51.896Z,49.07
2022-09-23T21:58:18.240Z,48.65
2022-09-23T22:00:44.646Z,48.95
2022-09-23T22:03:11.075Z,48.98
2022-09-23T22:08:31.396Z,48.90
2022-09-23T22:10:57.742Z,48.90
2022-09-23T22:13:24.101Z,48.90
2022-09-23T22:15:50.509Z,49.23
2022-09-23T22:18:16.905Z,49.13
2022-09-23T22:23:36.945Z,49.22
2022-09-23T22:26:03.689Z,49.29
2022-09-23T22:28:30.106Z,49.46
2022-09-23T22:30:56.483Z,49.34
2022-09-23T22:33:22.820Z,49.43
2022-09-23T22:38:33.051Z,49.41
2022-09-23T22:40:59.445Z,49.76
2022-09-23T22:43:25.786Z,49.54
2022-09-23T22:45:52.094Z,49.52
2022-09-23T22:48:18.526Z,49.68
2022-09-23T22:53:28.745Z,49.66
2022-09-23T22:55:55.070Z,49.59
2022-09-23T22:58:31.737Z,50.32
2022-09-23T23:00:58.799Z,49.74
2022-09-23T23:03:25.123Z,49.83
2022-09-23T23:08:46.457Z,49.63
2022-09-23T23:11:12.874Z,49.72
2022-09-23T23:13:39.213Z,49.71
2022-09-23T23:16:06.507Z,49.81
2022-09-23T23:18:32.880Z,49.98
2022-09-23T23:23:43.837Z,50.14
2022-09-23T23:26:11.028Z,49.98
2022-09-23T23:28:37.396Z,49.83
2022-09-23T23:31:04.661Z,50.10
2022-09-23T23:33:31.183Z,50.14
2022-09-23T23:35:58.376Z,50.32
2022-09-23T23:38:24.767Z,50.22
2022-09-23T23:40:53.033Z,50.10
2022-09-23T23:43:19.527Z,49.93
2022-09-23T23:45:45.923Z,50.18
2022-09-23T23:48:14.183Z,49.95
2022-09-23T23:50:43.321Z,50.37
2022-09-23T23:53:09.756Z,50.53
2022-09-23T23:55:38.932Z,50.18
2022-09-23T23:58:06.139Z,50.47
